Bad Radkersburg, Austria
Current Conditions -  °F | °C
As of 5:00 AM on Wednesday 26 Nov 2014 (Local Time) from LJMB Reporting Station
Haze Haze  
Wind Chill: 37°   Ceiling: 1100
Heat Index: 37°   Visibility: 2.8mi
Dew Point: 36°   Wind: 0mph
Humidity: 93%   Direction: NA
Pressure: 30.24"   Gusts: NA
Location:  46.69°N, 15.99°E
Report Text: LJMB 260300Z AUTO 00000KT 4500 BR BKN011/// OVC030///03/02 Q1024
Loading
Personal Weather Stations






























Interactive Weather Map New forecast layout! Learn more

10-Day Weather Forecast

Advertisements
Track Severe Weather on mobile